Time;durP1;ratioP1;P1;durP2;ratioP2;P2;SDS_P1;SDS_P2;PMS_P1;PMS_P2;Temp;Humidity;BMP_temperature;BMP_pressure;BME280_temperature;BME280_humidity;BME280_pressure;Samples;Min_cycle;Max_cycle;Signal;HPM_P1;HPM_P2
2023/11/10 00:02:14;;;;;;;1.23;0.57;;;7.60;99.90;;;;;;7374729;19;20066;-71
2023/11/10 00:04:48;;;;;;;1.50;0.60;;;7.60;99.90;;;;;;7376681;19;20386;-70
2023/11/10 00:07:19;;;;;;;2.45;0.70;;;7.50;99.90;;;;;;7375299;19;20015;-72
2023/11/10 00:09:49;;;;;;;0.60;0.50;;;7.50;99.90;;;;;;7375355;19;20010;-72
2023/11/10 00:12:20;;;;;;;3.30;0.60;;;7.50;99.90;;;;;;7376153;19;20033;-72
2023/11/10 00:14:52;;;;;;;1.15;0.70;;;7.50;99.90;;;;;;7374239;19;20435;-71
2023/11/10 00:17:22;;;;;;;3.80;1.15;;;7.50;99.90;;;;;;7377125;19;20090;-72
2023/11/10 00:19:52;;;;;;;2.60;0.82;;;7.50;99.90;;;;;;7382210;19;20074;-71
2023/11/10 00:22:22;;;;;;;2.63;1.00;;;7.50;99.90;;;;;;7382613;19;20010;-71
2023/11/10 00:24:53;;;;;;;1.27;0.90;;;7.60;99.90;;;;;;7381436;19;20483;-71
2023/11/10 00:27:23;;;;;;;3.10;1.27;;;7.60;99.90;;;;;;7382275;19;20010;-70
2023/11/10 00:29:56;;;;;;;3.75;1.63;;;7.60;99.90;;;;;;7381313;19;20477;-70
2023/11/10 00:32:26;;;;;;;1.80;1.40;;;7.60;99.90;;;;;;7382932;19;20877;-71
2023/11/10 00:34:56;;;;;;;2.92;1.50;;;7.60;99.90;;;;;;7381684;19;20016;-71
2023/11/10 00:37:26;;;;;;;6.07;2.08;;;7.60;99.90;;;;;;7383274;19;20015;-71
2023/11/10 00:39:57;;;;;;;2.47;1.23;;;7.60;99.90;;;;;;7376942;19;20177;-71
2023/11/10 00:42:28;;;;;;;3.25;1.77;;;7.60;99.90;;;;;;7381689;19;20010;-71
2023/11/10 00:45:02;;;;;;;3.92;1.80;;;7.60;99.90;;;;;;7380395;19;20066;-71
2023/11/10 00:47:33;;;;;;;2.33;1.90;;;7.60;99.90;;;;;;7381491;19;20014;-71
2023/11/10 00:50:03;;;;;;;2.10;1.90;;;7.60;99.90;;;;;;7380343;19;20030;-71
2023/11/10 00:52:33;;;;;;;2.47;2.20;;;7.60;99.90;;;;;;7381732;19;20018;-70
2023/11/10 00:55:06;;;;;;;3.40;2.20;;;7.60;99.90;;;;;;7379797;19;20031;-70
2023/11/10 00:57:36;;;;;;;2.30;2.10;;;7.60;99.90;;;;;;7382328;19;20010;-71
2023/11/10 01:00:11;;;;;;;4.88;2.75;;;7.60;99.90;;;;;;7380397;19;20006;-71
2023/11/10 01:02:41;;;;;;;2.47;2.22;;;7.60;99.90;;;;;;7382204;19;20821;-71
2023/11/10 01:05:14;;;;;;;2.83;2.20;;;7.60;99.90;;;;;;7378373;19;20540;-71
2023/11/10 01:07:45;;;;;;;2.80;2.30;;;7.60;99.90;;;;;;7382593;19;19998;-71
2023/11/10 01:10:15;;;;;;;3.63;2.35;;;7.60;99.90;;;;;;7381586;19;20011;-71
2023/11/10 01:12:46;;;;;;;4.28;2.20;;;7.60;99.90;;;;;;7380820;19;20017;-71
2023/11/10 01:15:20;;;;;;;3.42;2.20;;;7.60;99.90;;;;;;7380747;19;20094;-72
2023/11/10 01:17:50;;;;;;;2.40;1.80;;;7.50;99.90;;;;;;7382488;19;20030;-71
2023/11/10 01:20:20;;;;;;;3.42;2.38;;;7.60;99.90;;;;;;7377746;19;20014;-71
2023/11/10 01:22:50;;;;;;;4.10;2.10;;;7.60;99.90;;;;;;7381782;19;20030;-72
2023/11/10 01:25:20;;;;;;;3.33;2.10;;;7.60;99.90;;;;;;7381209;19;20080;-71
2023/11/10 01:27:53;;;;;;;3.35;2.30;;;7.60;99.90;;;;;;7379459;19;20006;-70
2023/11/10 01:30:25;;;;;;;3.17;2.30;;;7.60;99.90;;;;;;7377916;19;20082;-71
2023/11/10 01:32:57;;;;;;;2.88;2.20;;;7.60;99.90;;;;;;7380903;19;20014;-71
2023/11/10 01:35:28;;;;;;;4.13;2.67;;;7.50;99.90;;;;;;7381453;19;20013;-72
2023/11/10 01:37:57;;;;;;;2.45;2.20;;;7.50;99.90;;;;;;7379300;19;20027;-72
2023/11/10 01:40:28;;;;;;;2.45;1.90;;;7.60;99.90;;;;;;7378657;19;20023;-70
2023/11/10 01:42:58;;;;;;;2.95;2.08;;;7.60;99.90;;;;;;7380032;19;20566;-71
2023/11/10 01:45:31;;;;;;;2.38;1.73;;;7.60;99.90;;;;;;7379420;19;20018;-70
2023/11/10 01:48:01;;;;;;;2.95;1.73;;;7.60;99.90;;;;;;7378633;19;20061;-71
2023/11/10 01:50:31;;;;;;;2.72;1.40;;;7.60;99.90;;;;;;7380744;19;20082;-71
2023/11/10 01:53:01;;;;;;;3.95;1.65;;;7.70;99.90;;;;;;7378697;19;20097;-70
2023/11/10 01:55:33;;;;;;;3.92;2.58;;;7.70;99.90;;;;;;7379543;19;20105;-71
2023/11/10 01:58:03;;;;;;;11.10;5.38;;;7.70;99.90;;;;;;7380563;19;20078;-70
2023/11/10 02:00:37;;;;;;;2.80;1.30;;;7.80;99.90;;;;;;7379528;19;20031;-72
2023/11/10 02:03:08;;;;;;;1.20;1.10;;;7.80;99.90;;;;;;7404580;19;20018;-71
2023/11/10 02:05:38;;;;;;;1.15;0.80;;;7.80;99.90;;;;;;7395378;19;20014;-71
2023/11/10 02:08:11;;;;;;;1.80;0.90;;;7.90;99.70;;;;;;7380238;19;20013;-71
2023/11/10 02:10:41;;;;;;;1.80;0.80;;;7.90;92.90;;;;;;7379025;19;20093;-71
2023/11/10 02:13:22;;;;;;;1.42;0.88;;;7.90;93.90;;;;;;7378184;19;20014;-72
2023/11/10 02:15:55;;;;;;;0.98;0.80;;;7.90;94.00;;;;;;7378375;19;20056;-71
2023/11/10 02:18:25;;;;;;;1.40;0.88;;;7.90;92.20;;;;;;7380027;19;20805;-72
2023/11/10 02:20:55;;;;;;;1.58;0.93;;;7.90;94.20;;;;;;7372114;19;20523;-71
2023/11/10 02:23:26;;;;;;;1.88;0.82;;;7.90;98.30;;;;;;7378552;19;20081;-71
2023/11/10 02:25:59;;;;;;;2.42;1.25;;;7.90;98.30;;;;;;7378545;19;20077;-71
2023/11/10 02:28:28;;;;;;;1.98;1.20;;;7.90;94.10;;;;;;7377600;19;20018;-71
2023/11/10 02:30:56;;;;;;;0.90;0.80;;;7.90;90.70;;;;;;7379636;19;20139;-71
2023/11/10 02:33:26;;;;;;;2.45;0.70;;;7.90;91.60;;;;;;7381004;19;20459;-71
2023/11/10 02:35:56;;;;;;;0.80;0.80;;;7.90;90.90;;;;;;7377235;19;20014;-71
2023/11/10 02:38:26;;;;;;;1.98;0.70;;;7.90;93.80;;;;;;7378128;19;20011;-71
2023/11/10 02:40:58;;;;;;;1.20;0.60;;;7.90;93.70;;;;;;7376103;19;20011;-72
2023/11/10 02:43:28;;;;;;;1.88;0.93;;;7.90;91.70;;;;;;7375651;19;20015;-73
2023/11/10 02:45:58;;;;;;;1.20;0.80;;;7.90;93.50;;;;;;7378179;19;20023;-73
2023/11/10 02:48:28;;;;;;;1.80;1.05;;;7.90;95.00;;;;;;7378101;19;20010;-74
2023/11/10 02:50:59;;;;;;;1.60;0.90;;;7.80;99.90;;;;;;7377426;19;20022;-75
2023/11/10 02:53:29;;;;;;;1.35;0.82;;;7.80;99.90;;;;;;7377375;19;20015;-72
2023/11/10 02:56:02;;;;;;;2.17;0.75;;;7.80;99.90;;;;;;7378097;19;20027;-72
2023/11/10 02:58:32;;;;;;;0.98;0.60;;;7.80;99.60;;;;;;7378951;19;20002;-72
2023/11/10 03:01:03;;;;;;;0.85;0.70;;;7.80;99.90;;;;;;7377701;19;20018;-72
2023/11/10 03:03:33;;;;;;;1.10;0.73;;;7.80;99.90;;;;;;7378327;19;20039;-71
2023/11/10 03:06:03;;;;;;;2.13;0.82;;;7.80;99.90;;;;;;7378620;19;20487;-71
2023/11/10 03:08:34;;;;;;;1.13;0.70;;;7.80;99.90;;;;;;7377209;19;20359;-72
2023/11/10 03:11:07;;;;;;;0.98;0.70;;;7.80;99.90;;;;;;7375794;19;20081;-71
2023/11/10 03:13:37;;;;;;;1.95;0.80;;;7.70;99.90;;;;;;7376378;19;20404;-71
2023/11/10 03:16:09;;;;;;;2.15;0.80;;;7.70;99.90;;;;;;7377046;19;20106;-71
2023/11/10 03:18:39;;;;;;;1.27;0.90;;;7.70;99.90;;;;;;7377754;19;20024;-71
2023/11/10 03:21:09;;;;;;;2.45;0.75;;;7.70;99.90;;;;;;7377388;19;20025;-71
2023/11/10 03:23:39;;;;;;;1.30;0.88;;;7.70;99.90;;;;;;7375663;19;20413;-71
2023/11/10 03:26:12;;;;;;;1.20;0.90;;;7.70;99.90;;;;;;7376369;19;20482;-71
2023/11/10 03:28:43;;;;;;;0.77;0.60;;;7.70;99.90;;;;;;7376552;19;20014;-71
2023/11/10 03:31:13;;;;;;;1.20;0.63;;;7.70;99.90;;;;;;7376559;19;20010;-71
2023/11/10 03:33:43;;;;;;;1.58;0.50;;;7.70;99.90;;;;;;7375661;19;20333;-72
2023/11/10 03:36:13;;;;;;;1.45;0.70;;;7.70;94.40;;;;;;7376140;19;20007;-71
2023/11/10 03:38:44;;;;;;;0.80;0.60;;;7.70;93.50;;;;;;7375754;19;20042;-71
2023/11/10 03:41:18;;;;;;;0.50;0.40;;;7.70;85.10;;;;;;7375169;19;20014;-71
2023/11/10 03:43:48;;;;;;;1.02;0.50;;;7.70;76.30;;;;;;7374976;19;20089;-72
2023/11/10 03:46:18;;;;;;;2.22;0.70;;;7.70;71.80;;;;;;7376053;19;20129;-71
2023/11/10 03:48:48;;;;;;;0.98;0.50;;;7.70;70.70;;;;;;7377250;19;20124;-71
2023/11/10 03:51:18;;;;;;;1.33;0.60;;;7.80;65.60;;;;;;7375530;19;20014;-72
2023/11/10 03:53:48;;;;;;;3.85;0.70;;;7.70;56.00;;;;;;7380858;19;20364;-71
2023/11/10 03:56:21;;;;;;;0.70;0.32;;;7.80;45.70;;;;;;7383099;19;20143;-72
2023/11/10 03:58:51;;;;;;;0.45;0.20;;;7.80;41.70;;;;;;7383839;19;22431;-71
2023/11/10 04:01:21;;;;;;;0.30;0.30;;;7.80;34.20;;;;;;7377785;19;20067;-71
2023/11/10 04:03:51;;;;;;;0.90;0.30;;;7.80;28.50;;;;;;7379420;19;20024;-71
2023/11/10 04:06:21;;;;;;;1.33;0.30;;;7.80;22.20;;;;;;7382176;19;20010;-71
2023/11/10 04:09:07;;;;;;;0.73;0.43;;;7.80;21.40;;;;;;7377398;19;20007;-71
2023/11/10 04:11:39;;;;;;;0.70;0.30;;;7.80;23.90;;;;;;7383512;19;20405;-72
2023/11/10 04:14:11;;;;;;;0.55;0.30;;;7.80;31.50;;;;;;7381235;19;20463;-72
2023/11/10 04:16:41;;;;;;;0.30;0.28;;;7.80;28.70;;;;;;7380013;19;20070;-72
2023/11/10 04:19:11;;;;;;;1.17;0.20;;;7.80;27.90;;;;;;7381835;19;20021;-72
2023/11/10 04:21:41;;;;;;;1.48;0.35;;;7.80;28.60;;;;;;7383049;19;20010;-71
2023/11/10 04:24:12;;;;;;;3.45;0.63;;;7.80;30.20;;;;;;7381246;19;20018;-72
2023/11/10 04:26:45;;;;;;;1.70;0.75;;;7.80;28.90;;;;;;7382802;19;20015;-71
2023/11/10 04:29:15;;;;;;;3.20;0.80;;;7.80;26.30;;;;;;7381280;19;20015;-71
2023/11/10 04:31:45;;;;;;;0.65;0.50;;;7.80;24.80;;;;;;7383581;19;20042;-71
2023/11/10 04:34:15;;;;;;;0.60;0.30;;;7.80;29.60;;;;;;7380459;19;20355;-71
2023/11/10 04:36:46;;;;;;;1.23;0.40;;;7.80;32.40;;;;;;7381876;19;20017;-71
2023/11/10 04:39:18;;;;;;;1.55;0.75;;;7.80;28.70;;;;;;7382205;19;20059;-71
2023/11/10 04:41:51;;;;;;;0.95;0.55;;;7.80;25.90;;;;;;7381705;19;20011;-71
2023/11/10 04:44:23;;;;;;;0.50;0.43;;;7.80;24.70;;;;;;7383112;19;20045;-71
2023/11/10 04:46:53;;;;;;;0.70;0.40;;;7.80;25.70;;;;;;7382902;19;20179;-71
2023/11/10 04:49:23;;;;;;;0.88;0.55;;;7.80;22.00;;;;;;7382379;19;21201;-71
2023/11/10 04:51:53;;;;;;;2.53;0.40;;;7.80;22.50;;;;;;7381194;19;20007;-71
2023/11/10 04:54:23;;;;;;;1.20;0.70;;;7.90;23.30;;;;;;7380756;19;21055;-70
2023/11/10 04:56:55;;;;;;;1.50;0.40;;;7.90;22.70;;;;;;7381936;19;27749;-70
2023/11/10 04:59:25;;;;;;;0.70;0.55;;;7.80;23.10;;;;;;7381880;19;20010;-71
2023/11/10 05:01:57;;;;;;;2.55;0.75;;;7.80;26.50;;;;;;7378060;19;20081;-71
2023/11/10 05:04:27;;;;;;;1.85;0.73;;;7.80;29.10;;;;;;7378707;19;20014;-71
2023/11/10 05:06:58;;;;;;;0.70;0.50;;;7.80;33.90;;;;;;7381357;19;20022;-71
2023/11/10 05:09:28;;;;;;;1.13;0.43;;;7.80;25.40;;;;;;7381513;19;20006;-70
2023/11/10 05:12:00;;;;;;;0.75;0.35;;;7.80;25.70;;;;;;7381195;19;20006;-70
2023/11/10 05:14:30;;;;;;;0.20;0.20;;;7.80;23.10;;;;;;7381460;19;20035;-71
2023/11/10 05:17:00;;;;;;;0.57;0.15;;;7.80;22.90;;;;;;7377427;19;20074;-70
2023/11/10 05:19:30;;;;;;;0.73;0.28;;;7.80;20.80;;;;;;7382447;19;20403;-71
2023/11/10 05:22:00;;;;;;;0.35;0.13;;;7.80;20.30;;;;;;7381204;19;20010;-71
2023/11/10 05:24:30;;;;;;;0.57;0.40;;;7.80;17.90;;;;;;7396840;19;20436;-71
2023/11/10 05:27:04;;;;;;;1.00;0.30;;;7.80;20.20;;;;;;7387497;19;20021;-72
2023/11/10 05:29:35;;;;;;;0.93;0.20;;;7.70;17.60;;;;;;7376571;19;20078;-71
2023/11/10 05:32:06;;;;;;;0.98;0.50;;;7.80;17.20;;;;;;7375142;19;20045;-70
2023/11/10 05:34:37;;;;;;;1.25;0.50;;;7.80;15.70;;;;;;7379768;19;20089;-70
2023/11/10 05:37:10;;;;;;;0.43;0.30;;;7.80;13.50;;;;;;7381219;19;20126;-71
2023/11/10 05:39:40;;;;;;;0.40;0.20;;;7.70;10.00;;;;;;7373880;19;20086;-71
2023/11/10 05:42:13;;;;;;;0.43;0.20;;;7.70;15.50;;;;;;7378965;19;20011;-71
2023/11/10 05:44:43;;;;;;;0.70;0.40;;;7.70;17.10;;;;;;7380338;19;20110;-71
2023/11/10 05:47:13;;;;;;;2.45;0.30;;;7.60;16.80;;;;;;7380100;19;20014;-71
2023/11/10 05:49:43;;;;;;;0.55;0.30;;;7.70;18.70;;;;;;7379860;19;20025;-71
2023/11/10 05:52:13;;;;;;;0.98;0.40;;;7.70;18.00;;;;;;7379488;19;20078;-71
2023/11/10 05:54:43;;;;;;;0.60;0.35;;;7.70;19.80;;;;;;7379958;19;20022;-71
2023/11/10 05:57:17;;;;;;;0.30;0.20;;;7.70;14.00;;;;;;7379008;19;20025;-72
2023/11/10 05:59:48;;;;;;;0.32;0.20;;;7.70;17.10;;;;;;7380343;19;20479;-71
2023/11/10 06:02:18;;;;;;;0.98;0.55;;;7.60;16.70;;;;;;7377866;19;20501;-71
2023/11/10 06:04:48;;;;;;;1.98;0.50;;;7.60;16.70;;;;;;7379893;19;20125;-71
2023/11/10 06:07:19;;;;;;;0.50;0.30;;;7.70;17.70;;;;;;7380001;19;20486;-72
2023/11/10 06:09:49;;;;;;;0.93;0.40;;;7.70;19.60;;;;;;7379097;19;20014;-71
2023/11/10 06:12:21;;;;;;;0.80;0.65;;;7.60;14.00;;;;;;7379387;19;20031;-72
2023/11/10 06:14:51;;;;;;;0.50;0.35;;;7.60;15.20;;;;;;7378326;19;20540;-72
2023/11/10 06:17:22;;;;;;;0.30;0.20;;;7.60;17.80;;;;;;7378966;19;20011;-72
2023/11/10 06:19:53;;;;;;;0.50;0.40;;;7.60;20.00;;;;;;7379098;19;20018;-71
2023/11/10 06:22:23;;;;;;;1.67;0.50;;;7.50;22.00;;;;;;7378073;19;20377;-71
2023/11/10 06:24:53;;;;;;;1.02;0.57;;;7.50;19.50;;;;;;7378155;19;20014;-71
2023/11/10 06:27:26;;;;;;;0.77;0.65;;;7.50;23.20;;;;;;7380140;19;20087;-71
2023/11/10 06:29:59;;;;;;;0.93;0.40;;;7.50;25.60;;;;;;7379300;19;20014;-70
2023/11/10 06:32:31;;;;;;;1.00;0.40;;;7.50;29.20;;;;;;7379627;19;20022;-71
2023/11/10 06:35:01;;;;;;;0.47;0.40;;;7.50;27.80;;;;;;7377406;19;20033;-71
2023/11/10 06:37:32;;;;;;;0.75;0.30;;;7.50;25.60;;;;;;7378547;19;20409;-71
2023/11/10 06:40:02;;;;;;;0.70;0.20;;;7.60;24.30;;;;;;7376471;19;20413;-71
2023/11/10 06:42:35;;;;;;;0.82;0.60;;;7.60;25.80;;;;;;7376559;19;20511;-71
2023/11/10 06:45:06;;;;;;;2.33;1.80;;;7.60;22.40;;;;;;7375561;19;20022;-71
2023/11/10 06:47:36;;;;;;;1.30;1.00;;;7.60;21.70;;;;;;7379719;19;20039;-71
2023/11/10 06:50:07;;;;;;;1.35;0.60;;;7.70;20.70;;;;;;7378603;19;20478;-71
2023/11/10 06:52:37;;;;;;;0.90;0.40;;;7.70;20.50;;;;;;7378348;19;20035;-72
2023/11/10 06:55:13;;;;;;;3.50;0.68;;;7.70;18.50;;;;;;7377033;19;20018;-72
2023/11/10 06:57:46;;;;;;;0.57;0.32;;;7.70;18.10;;;;;;7377395;19;20094;-72
2023/11/10 07:00:17;;;;;;;1.88;0.40;;;7.70;14.40;;;;;;7378534;19;20003;-72
2023/11/10 07:02:47;;;;;;;0.32;0.20;;;7.80;18.20;;;;;;7377016;19;20082;-73
2023/11/10 07:05:20;;;;;;;1.55;0.55;;;7.80;12.00;;;;;;7377671;19;20036;-70
2023/11/10 07:07:51;;;;;;;1.13;0.50;;;7.80;13.00;;;;;;7378198;19;20341;-72
2023/11/10 07:10:21;;;;;;;0.80;0.40;;;7.80;12.20;;;;;;7375630;19;20014;-71
2023/11/10 07:12:53;;;;;;;1.50;0.80;;;7.80;18.10;;;;;;7375751;19;20015;-71
2023/11/10 07:15:23;;;;;;;2.17;1.10;;;7.80;16.50;;;;;;7375095;19;20036;-72
2023/11/10 07:17:53;;;;;;;3.00;0.90;;;7.90;21.90;;;;;;7374365;19;20006;-72
2023/11/10 07:20:23;;;;;;;2.60;0.95;;;7.90;24.80;;;;;;7374588;19;20014;-70
2023/11/10 07:22:53;;;;;;;1.50;0.80;;;8.00;23.80;;;;;;7371180;19;20027;-71
2023/11/10 07:25:24;;;;;;;1.73;0.60;;;8.10;25.80;;;;;;7371728;19;20078;-70
2023/11/10 07:27:57;;;;;;;0.93;0.63;;;8.10;20.40;;;;;;7373292;19;20510;-71
2023/11/10 07:30:30;;;;;;;1.83;0.70;;;8.20;26.60;;;;;;7373693;19;20010;-71
2023/11/10 07:33:03;;;;;;;1.52;0.60;;;8.30;25.20;;;;;;7374913;19;20025;-71
2023/11/10 07:35:33;;;;;;;1.45;0.90;;;8.30;18.50;;;;;;7375978;19;20026;-72
2023/11/10 07:38:03;;;;;;;2.22;0.80;;;8.20;12.40;;;;;;7375307;19;20027;-72
2023/11/10 07:40:34;;;;;;;1.50;0.70;;;8.20;19.10;;;;;;7375840;19;20030;-71
2023/11/10 07:43:07;;;;;;;1.90;1.13;;;8.20;22.50;;;;;;7374388;19;20601;-73
2023/11/10 07:45:38;;;;;;;3.65;1.05;;;8.20;23.70;;;;;;7375780;19;20026;-72
2023/11/10 07:48:09;;;;;;;1.02;0.70;;;8.20;24.80;;;;;;7375738;19;20011;-70
2023/11/10 07:50:39;;;;;;;2.15;0.90;;;8.20;25.80;;;;;;7377700;19;20098;-70
2023/11/10 07:53:09;;;;;;;1.60;1.10;;;8.00;31.10;;;;;;7376425;19;20011;-71
2023/11/10 07:55:39;;;;;;;2.65;0.80;;;8.00;29.50;;;;;;7375008;19;20101;-71
2023/11/10 07:58:11;;;;;;;2.45;0.98;;;8.10;32.30;;;;;;7378355;19;20022;-70
2023/11/10 08:00:41;;;;;;;1.88;0.77;;;8.10;29.40;;;;;;7376577;19;20474;-71
2023/11/10 08:03:11;;;;;;;1.85;0.70;;;8.10;23.60;;;;;;7376697;19;20014;-71
2023/11/10 08:05:41;;;;;;;0.80;0.52;;;8.10;25.60;;;;;;7376671;19;20011;-70
2023/11/10 08:08:11;;;;;;;1.85;0.68;;;8.00;26.10;;;;;;7372144;19;20013;-71
2023/11/10 08:10:41;;;;;;;4.55;3.05;;;8.10;29.50;;;;;;7377016;19;20007;-70
2023/11/10 08:13:14;;;;;;;0.60;0.60;;;8.10;26.80;;;;;;7373374;19;20050;-71
2023/11/10 08:15:45;;;;;;;1.67;0.68;;;8.20;19.40;;;;;;7376746;19;20007;-71
2023/11/10 08:18:16;;;;;;;2.35;0.70;;;8.40;16.90;;;;;;7370682;19;20014;-71
2023/11/10 08:20:47;;;;;;;1.30;0.70;;;8.50;14.80;;;;;;7376456;19;20112;-71
2023/11/10 08:23:18;;;;;;;2.85;0.60;;;8.40;12.60;;;;;;7374815;19;20006;-72
2023/11/10 08:25:50;;;;;;;2.42;0.95;;;8.50;8.60;;;;;;7374732;19;20078;-71
2023/11/10 08:28:22;;;;;;;1.15;0.70;;;8.60;6.80;;;;;;7375194;19;20039;-71
2023/11/10 08:30:52;;;;;;;2.92;0.70;;;8.60;5.10;;;;;;7374182;19;20019;-72
2023/11/10 08:33:25;;;;;;;1.27;0.80;;;8.70;1.00;;;;;;7374433;19;20010;-71
2023/11/10 08:35:55;;;;;;;0.95;0.52;;;8.70;1.00;;;;;;7374892;19;20014;-71
2023/11/10 08:38:25;;;;;;;1.35;0.75;;;8.70;1.00;;;;;;7374151;19;20011;-72
2023/11/10 08:40:55;;;;;;;1.52;0.80;;;8.80;1.00;;;;;;7380763;19;20473;-72
2023/11/10 08:43:28;;;;;;;1.67;0.60;;;8.90;1.00;;;;;;7379930;19;20006;-71
2023/11/10 08:45:58;;;;;;;0.73;0.43;;;8.80;1.00;;;;;;7382517;19;20366;-71
2023/11/10 08:48:28;;;;;;;2.25;0.68;;;8.90;1.00;;;;;;7397785;19;20015;-72
2023/11/10 08:50:58;;;;;;;0.52;0.52;;;8.80;1.00;;;;;;7397164;19;20380;-71
2023/11/10 08:53:29;;;;;;;3.47;2.13;;;8.90;1.00;;;;;;7384089;19;20087;-71
2023/11/10 08:55:59;;;;;;;2.00;0.93;;;9.10;1.00;;;;;;7381719;19;20015;-71
2023/11/10 08:58:32;;;;;;;0.93;0.55;;;9.00;1.00;;;;;;7381285;19;20021;-71
2023/11/10 09:01:02;;;;;;;1.15;0.50;;;9.10;1.00;;;;;;7380737;19;20015;-71
2023/11/10 09:03:32;;;;;;;2.22;0.70;;;9.10;1.00;;;;;;7380299;19;20468;-71
2023/11/10 09:06:02;;;;;;;1.98;0.82;;;9.10;1.00;;;;;;7381415;19;20014;-71
2023/11/10 09:08:33;;;;;;;2.78;0.73;;;9.20;1.00;;;;;;7381825;19;20011;-71
2023/11/10 09:11:03;;;;;;;2.17;0.73;;;9.20;1.00;;;;;;7380756;19;20382;-71
2023/11/10 09:13:35;;;;;;;1.92;0.70;;;9.10;1.00;;;;;;7379518;19;20089;-71
2023/11/10 09:16:07;;;;;;;1.67;0.68;;;9.10;1.00;;;;;;7381692;19;20039;-72
2023/11/10 09:18:38;;;;;;;3.92;0.50;;;9.00;1.00;;;;;;7381135;19;20023;-72
2023/11/10 09:21:09;;;;;;;0.85;0.50;;;9.10;1.00;;;;;;7381940;19;20511;-72
2023/11/10 09:23:39;;;;;;;0.90;0.50;;;9.20;1.00;;;;;;7377874;19;20031;-73
2023/11/10 09:26:09;;;;;;;2.25;0.55;;;9.30;1.00;;;;;;7380983;19;20077;-72
2023/11/10 09:28:42;;;;;;;3.53;0.70;;;9.30;1.00;;;;;;7380552;19;20170;-72
2023/11/10 09:31:12;;;;;;;0.63;0.60;;;9.50;1.00;;;;;;7378365;19;20407;-72
2023/11/10 09:33:42;;;;;;;1.77;0.60;;;9.50;1.00;;;;;;7380775;19;20388;-71
2023/11/10 09:36:12;;;;;;;0.93;0.63;;;9.60;1.00;;;;;;7380194;19;20006;-71
2023/11/10 09:38:42;;;;;;;2.13;0.73;;;9.80;1.00;;;;;;7379457;19;20027;-71
2023/11/10 09:41:17;;;;;;;2.58;0.80;;;9.90;1.00;;;;;;7379512;19;20344;-71
2023/11/10 09:43:53;;;;;;;1.15;0.50;;;9.90;1.00;;;;;;7380465;19;20028;-70
2023/11/10 09:46:24;;;;;;;2.97;1.50;;;10.00;1.00;;;;;;7376015;19;20031;-71
2023/11/10 09:48:57;;;;;;;1.92;0.50;;;9.90;1.00;;;;;;7379177;19;20011;-71
2023/11/10 09:51:28;;;;;;;1.02;0.50;;;10.00;1.00;;;;;;7379629;19;20007;-71
2023/11/10 09:54:02;;;;;;;2.05;0.60;;;10.00;1.00;;;;;;7379646;19;20010;-71
2023/11/10 09:56:35;;;;;;;1.55;0.70;;;10.00;1.00;;;;;;7379409;19;20015;-71
2023/11/10 09:59:08;;;;;;;0.55;0.20;;;9.80;1.00;;;;;;7379835;19;20498;-71
2023/11/10 10:01:38;;;;;;;1.15;0.40;;;9.80;1.00;;;;;;7379634;19;20094;-71
2023/11/10 10:04:09;;;;;;;0.77;0.50;;;9.70;1.00;;;;;;7379000;19;20071;-71
2023/11/10 10:06:42;;;;;;;0.50;0.40;;;9.50;1.00;;;;;;7377977;19;20018;-70
2023/11/10 10:09:13;;;;;;;2.25;1.33;;;9.60;1.00;;;;;;7384488;19;20658;-70
2023/11/10 10:11:44;;;;;;;1.08;0.40;;;9.50;1.00;;;;;;7379142;19;20013;-71
2023/11/10 10:14:17;;;;;;;0.60;0.30;;;9.50;1.00;;;;;;7377887;19;20042;-70
2023/11/10 10:16:56;;;;;;;1.73;0.60;;;9.80;1.00;;;;;;7378891;19;20031;-72
2023/11/10 10:19:29;;;;;;;2.83;0.40;;;9.80;1.00;;;;;;7374781;19;20017;-71
2023/11/10 10:22:01;;;;;;;1.77;0.68;;;9.90;1.00;;;;;;7377111;19;20006;-71
2023/11/10 10:24:31;;;;;;;1.58;0.55;;;10.10;1.00;;;;;;7376351;19;20120;-71
2023/11/10 10:27:01;;;;;;;2.13;0.65;;;10.20;1.00;;;;;;7376714;19;20010;-71
2023/11/10 10:29:34;;;;;;;2.03;0.50;;;10.40;1.00;;;;;;7377912;19;20490;-70
2023/11/10 10:32:05;;;;;;;1.65;0.40;;;10.40;1.00;;;;;;7376661;19;20010;-72
2023/11/10 10:34:39;;;;;;;2.70;0.75;;;10.50;1.00;;;;;;7377229;19;20026;-72
2023/11/10 10:37:11;;;;;;;6.10;0.57;;;10.50;1.00;;;;;;7377350;19;20041;-72
2023/11/10 10:39:44;;;;;;;1.45;0.30;;;10.60;1.00;;;;;;7378344;19;20055;-71
2023/11/10 10:42:16;;;;;;;1.47;0.67;;;10.50;1.00;;;;;;7377405;19;20022;-71
2023/11/10 10:44:50;;;;;;;3.25;0.95;;;10.50;1.00;;;;;;7377001;19;20368;-72
2023/11/10 10:47:21;;;;;;;2.67;0.80;;;10.40;1.00;;;;;;7376509;19;20010;-71
2023/11/10 10:49:52;;;;;;;1.05;0.40;;;10.50;1.00;;;;;;7375510;19;20022;-72
2023/11/10 10:52:23;;;;;;;1.27;0.40;;;10.50;1.00;;;;;;7377678;19;20018;-70
2023/11/10 10:54:54;;;;;;;1.95;0.70;;;10.20;1.00;;;;;;7375725;19;20014;-70
2023/11/10 10:57:26;;;;;;;2.97;0.47;;;10.50;1.00;;;;;;7376624;19;20078;-70
2023/11/10 10:59:59;;;;;;;1.95;0.55;;;10.70;1.00;;;;;;7377521;19;20042;-71
2023/11/10 11:02:30;;;;;;;2.38;0.55;;;10.80;1.00;;;;;;7374911;19;20489;-71
2023/11/10 11:05:08;;;;;;;2.08;1.48;;;10.80;1.00;;;;;;7375470;19;20748;-71
2023/11/10 11:07:56;;;;;;;4.97;3.28;;;10.80;1.00;;;;;;7376707;19;20025;-71
2023/11/10 11:10:43;;;;;;;2.35;0.63;;;10.80;1.00;;;;;;7374987;19;20027;-71
2023/11/10 11:13:37;;;;;;;0.55;0.40;;;11.00;1.00;;;;;;7376491;19;20039;-70
2023/11/10 11:16:23;;;;;;;1.17;0.55;;;11.40;1.00;;;;;;6866526;19;2004231;-70
2023/11/10 11:19:21;;;;;;;0.93;0.40;;;11.70;1.00;;;;;;7371639;19;20002;-71
2023/11/10 11:21:52;;;;;;;1.77;0.40;;;11.80;1.00;;;;;;7374074;19;20469;-72
2023/11/10 11:24:24;;;;;;;3.22;2.20;;;11.70;1.00;;;;;;7375481;19;20014;-71
2023/11/10 11:27:01;;;;;;;1.20;0.40;;;11.90;1.00;;;;;;7376344;19;20478;-70
2023/11/10 11:29:40;;;;;;;0.80;0.30;;;11.80;1.00;;;;;;7373949;19;20026;-72
2023/11/10 11:32:19;;;;;;;2.83;0.43;;;11.90;1.00;;;;;;7374578;19;20703;-71
2023/11/10 11:34:53;;;;;;;1.02;0.43;;;11.50;1.00;;;;;;7375578;19;20029;-72
2023/11/10 11:37:24;;;;;;;1.92;0.60;;;11.30;1.00;;;;;;7375746;19;20014;-71
2023/11/10 11:39:55;;;;;;;4.13;0.85;;;11.30;1.00;;;;;;7376817;19;20003;-70
2023/11/10 11:42:36;;;;;;;2.55;0.82;;;11.30;1.00;;;;;;7374107;19;20017;-70
2023/11/10 11:45:14;;;;;;;1.42;0.52;;;11.60;1.00;;;;;;7374888;19;20007;-72
2023/11/10 11:47:52;;;;;;;4.40;1.20;;;11.50;1.00;;;;;;7374919;19;20036;-71
2023/11/10 11:50:24;;;;;;;1.25;0.50;;;11.70;1.00;;;;;;7371842;19;20011;-70
2023/11/10 11:52:56;;;;;;;1.88;0.52;;;11.70;1.00;;;;;;7377059;19;20011;-71
2023/11/10 11:55:26;;;;;;;2.30;0.45;;;11.40;1.00;;;;;;7365983;19;20007;-71
2023/11/10 11:57:58;;;;;;;1.65;0.57;;;11.40;1.00;;;;;;7376410;19;20018;-72
2023/11/10 12:00:28;;;;;;;1.67;0.70;;;11.30;1.00;;;;;;7376060;19;20031;-72
2023/11/10 12:03:01;;;;;;;1.90;0.60;;;10.90;1.00;;;;;;7377318;19;20010;-71
2023/11/10 12:05:31;;;;;;;2.03;0.88;;;10.90;1.00;;;;;;7373391;19;20017;-71
2023/11/10 12:08:01;;;;;;;1.83;0.90;;;10.80;1.00;;;;;;7374968;19;20493;-72
2023/11/10 12:10:31;;;;;;;0.93;0.43;;;10.80;1.00;;;;;;7374482;19;20032;-72
2023/11/10 12:13:02;;;;;;;1.13;0.63;;;10.60;1.00;;;;;;7376505;19;20019;-72
2023/11/10 12:15:35;;;;;;;2.42;0.63;;;10.60;1.00;;;;;;7380903;19;20030;-71
2023/11/10 12:18:07;;;;;;;3.85;0.88;;;10.90;1.00;;;;;;7381997;19;20101;-71
2023/11/10 12:20:38;;;;;;;1.83;0.60;;;11.10;1.00;;;;;;7378050;19;20018;-71
2023/11/10 12:23:09;;;;;;;0.75;0.47;;;10.90;1.00;;;;;;7381218;19;20027;-71
2023/11/10 12:25:39;;;;;;;1.85;0.70;;;10.70;1.00;;;;;;7380109;19;20006;-72
2023/11/10 12:28:13;;;;;;;1.95;0.70;;;10.50;1.00;;;;;;7380672;19;20040;-72
2023/11/10 12:30:43;;;;;;;1.10;0.45;;;10.50;1.00;;;;;;7381410;19;20078;-71
2023/11/10 12:33:20;;;;;;;1.63;0.50;;;10.40;1.00;;;;;;7381703;19;20010;-71
2023/11/10 12:35:52;;;;;;;1.55;0.65;;;10.50;1.00;;;;;;7382101;19;20017;-71
2023/11/10 12:38:24;;;;;;;1.23;0.50;;;10.30;1.00;;;;;;7382758;19;20050;-71
2023/11/10 12:40:56;;;;;;;1.75;0.52;;;10.40;1.00;;;;;;7378777;19;20018;-71
2023/11/10 12:43:26;;;;;;;2.40;0.80;;;10.40;1.00;;;;;;7381256;19;20068;-72
2023/11/10 12:45:56;;;;;;;2.35;0.80;;;10.40;1.00;;;;;;7381693;19;20003;-72
2023/11/10 12:48:30;;;;;;;2.10;1.20;;;10.60;1.00;;;;;;7378455;19;20014;-71
2023/11/10 12:51:03;;;;;;;2.50;0.55;;;10.60;1.00;;;;;;7376346;19;20027;-71
2023/11/10 12:53:33;;;;;;;2.35;0.95;;;10.40;1.00;;;;;;7379899;19;20035;-71
2023/11/10 12:56:06;;;;;;;3.38;1.10;;;10.40;1.00;;;;;;7381968;19;20014;-70
2023/11/10 12:58:37;;;;;;;1.88;0.95;;;10.50;1.00;;;;;;7381747;19;20676;-71
2023/11/10 13:01:07;;;;;;;4.35;1.00;;;10.50;1.00;;;;;;7379896;19;20013;-72
2023/11/10 13:03:39;;;;;;;3.78;1.30;;;10.60;1.00;;;;;;7378914;19;20006;-71
2023/11/10 13:06:10;;;;;;;3.25;1.10;;;10.50;1.00;;;;;;7379504;19;20490;-71
2023/11/10 13:08:40;;;;;;;1.35;0.55;;;10.50;1.00;;;;;;7379008;19;20007;-71
2023/11/10 13:11:10;;;;;;;3.78;0.88;;;10.50;1.00;;;;;;7377939;19;20117;-71
2023/11/10 13:13:40;;;;;;;2.70;1.10;;;10.60;1.00;;;;;;7382115;19;20014;-72
2023/11/10 13:16:10;;;;;;;2.88;0.90;;;10.60;1.00;;;;;;7378844;19;20014;-72
2023/11/10 13:18:42;;;;;;;2.70;0.75;;;10.60;1.00;;;;;;7380484;19;20018;-72
2023/11/10 13:21:13;;;;;;;1.77;0.40;;;10.60;1.00;;;;;;7380349;19;20013;-71